createdAt,value
2022-09-06T00:01:17.277Z,42.76
2022-09-06T00:03:46.526Z,42.64
2022-09-06T00:06:18.480Z,42.62
2022-09-06T00:08:48.383Z,42.61
2022-09-06T00:11:17.973Z,42.43
2022-09-06T00:13:46.584Z,42.35
2022-09-06T00:16:26.300Z,42.36
2022-09-06T00:18:56.831Z,42.41
2022-09-06T00:21:28.376Z,42.62
2022-09-06T00:23:56.362Z,42.45
2022-09-06T00:26:24.646Z,42.45
2022-09-06T00:28:52.501Z,42.65
2022-09-06T00:31:24.308Z,42.55
2022-09-06T00:33:53.419Z,42.60
2022-09-06T00:36:24.257Z,42.44
2022-09-06T00:38:52.052Z,42.57
2022-09-06T00:41:19.898Z,42.57
2022-09-06T00:43:47.691Z,42.82
2022-09-06T00:46:27.062Z,42.91
2022-09-06T00:49:24.397Z,43.11
2022-09-06T00:51:56.119Z,43.10
2022-09-06T00:54:24.168Z,43.07
2022-09-06T00:56:52.013Z,43.32
2022-09-06T00:59:19.961Z,43.32
2022-09-06T01:01:48.221Z,43.37
2022-09-06T01:04:16.390Z,43.34
2022-09-06T01:07:35.475Z,43.07
2022-09-06T01:10:36.486Z,43.21
2022-09-06T01:13:22.153Z,43.36
2022-09-06T01:16:11.789Z,43.50
2022-09-06T01:19:16.527Z,43.42
2022-09-06T01:22:54.730Z,43.84
2022-09-06T01:25:31.426Z,43.74
2022-09-06T01:28:30.600Z,43.65
2022-09-06T01:31:17.128Z,43.58
2022-09-06T01:34:06.001Z,43.73
2022-09-06T01:37:06.291Z,43.76
2022-09-06T01:39:35.904Z,43.76
2022-09-06T01:42:29.889Z,43.58
2022-09-06T01:45:08.282Z,43.63
2022-09-06T01:47:40.684Z,43.87
2022-09-06T01:50:20.118Z,43.77
2022-09-06T01:53:42.012Z,43.60
2022-09-06T01:56:45.322Z,43.58
2022-09-06T01:59:34.553Z,44.73
2022-09-06T02:02:08.545Z,45.90
2022-09-06T02:05:01.509Z,45.28
2022-09-06T02:07:32.830Z,45.68
2022-09-06T02:10:42.178Z,45.53
2022-09-06T02:13:13.349Z,48.07
2022-09-06T02:15:57.182Z,49.42
2022-09-06T02:18:38.345Z,53.12
2022-09-06T02:21:08.965Z,53.04
2022-09-06T02:23:40.595Z,53.90
2022-09-06T02:26:29.725Z,53.93
2022-09-06T02:28:58.133Z,55.20
2022-09-06T02:31:47.849Z,56.16
2022-09-06T02:34:18.932Z,56.90
2022-09-06T02:36:47.485Z,57.96
2022-09-06T02:39:15.466Z,58.77
2022-09-06T02:41:46.307Z,58.39
2022-09-06T02:44:14.953Z,58.52
2022-09-06T02:46:42.713Z,60.09
2022-09-06T02:49:10.491Z,60.71
2022-09-06T02:51:39.810Z,60.62
2022-09-06T02:54:07.781Z,60.65
2022-09-06T02:56:36.715Z,60.37
2022-09-06T02:59:05.621Z,60.22
2022-09-06T03:01:33.964Z,60.84
2022-09-06T03:04:02.310Z,61.26
2022-09-06T03:06:30.712Z,61.50
2022-09-06T03:09:00.165Z,61.36
2022-09-06T03:11:28.726Z,60.78
2022-09-06T03:13:56.584Z,60.95
2022-09-06T03:16:24.484Z,60.89
2022-09-06T03:18:52.316Z,60.81
2022-09-06T03:21:20.354Z,60.51
2022-09-06T03:23:48.201Z,60.53
2022-09-06T03:26:16.134Z,60.96
2022-09-06T03:28:43.908Z,60.30
2022-09-06T03:31:11.989Z,59.82
2022-09-06T03:33:40.020Z,60.27
2022-09-06T03:36:08.590Z,60.44
2022-09-06T03:38:36.404Z,60.67
2022-09-06T03:41:04.260Z,60.17
2022-09-06T03:43:32.413Z,60.54
2022-09-06T03:46:02.586Z,60.37
2022-09-06T03:48:30.479Z,59.68
2022-09-06T03:50:59.497Z,59.86
2022-09-06T03:53:29.445Z,60.16
2022-09-06T03:55:58.800Z,60.22
2022-09-06T03:58:31.716Z,59.71
2022-09-06T04:01:08.937Z,59.20
2022-09-06T04:03:38.165Z,59.48
2022-09-06T04:06:07.132Z,59.17
2022-09-06T04:08:36.434Z,58.85
2022-09-06T04:11:05.353Z,58.97
2022-09-06T04:13:34.033Z,59.07
2022-09-06T04:16:02.491Z,59.29
2022-09-06T04:18:30.621Z,58.89
2022-09-06T04:20:58.866Z,59.16
2022-09-06T04:23:29.122Z,58.94
2022-09-06T04:25:59.209Z,58.78
2022-09-06T04:28:28.347Z,58.48
2022-09-06T04:31:03.936Z,58.28
2022-09-06T04:33:35.302Z,58.74
2022-09-06T04:36:07.712Z,58.27
2022-09-06T04:38:38.983Z,57.78
2022-09-06T04:41:08.207Z,58.29
2022-09-06T04:43:36.300Z,58.36
2022-09-06T04:46:28.709Z,58.04
2022-09-06T04:48:57.900Z,58.34
2022-09-06T04:51:26.092Z,58.57
2022-09-06T04:53:54.370Z,58.12
2022-09-06T04:56:25.262Z,58.36
2022-09-06T04:58:55.552Z,58.45
2022-09-06T05:01:23.590Z,58.29
2022-09-06T05:03:55.010Z,57.99
2022-09-06T05:06:25.788Z,58.09
2022-09-06T05:08:53.693Z,58.19
2022-09-06T05:11:21.570Z,58.03
2022-09-06T05:13:50.366Z,57.82
2022-09-06T05:16:18.436Z,58.13
2022-09-06T05:18:46.320Z,58.26
2022-09-06T05:21:14.624Z,58.10
2022-09-06T05:23:42.716Z,58.23
2022-09-06T05:26:10.551Z,57.83
2022-09-06T05:28:38.646Z,58.08
2022-09-06T05:31:12.902Z,57.77
2022-09-06T05:33:40.806Z,58.04
2022-09-06T05:36:08.934Z,58.07
2022-09-06T05:38:36.765Z,57.96
2022-09-06T05:41:04.809Z,58.45
2022-09-06T05:43:33.549Z,58.18
2022-09-06T05:46:01.567Z,57.77
2022-09-06T05:48:33.310Z,58.09
2022-09-06T05:51:12.929Z,57.88
2022-09-06T05:53:45.820Z,57.98
2022-09-06T05:56:15.236Z,58.16
2022-09-06T05:58:43.249Z,58.50
2022-09-06T06:01:21.456Z,58.55
2022-09-06T06:04:05.104Z,58.04
2022-09-06T06:06:35.949Z,58.55
2022-09-06T06:09:03.999Z,58.34
2022-09-06T06:11:32.271Z,58.70
2022-09-06T06:14:00.756Z,58.22
2022-09-06T06:16:29.086Z,58.34
2022-09-06T06:18:57.330Z,57.95
2022-09-06T06:21:28.021Z,58.06
2022-09-06T06:23:58.892Z,58.45
2022-09-06T06:26:28.475Z,57.68
2022-09-06T06:28:58.012Z,57.63
2022-09-06T06:31:25.873Z,58.32
2022-09-06T06:33:53.694Z,58.18
2022-09-06T06:36:25.011Z,57.86
2022-09-06T06:38:55.411Z,57.81
2022-09-06T06:41:26.457Z,57.71
2022-09-06T06:44:00.173Z,57.58
2022-09-06T06:46:34.355Z,57.73
2022-09-06T06:49:02.431Z,56.96
2022-09-06T06:51:33.644Z,57.50
2022-09-06T06:54:01.449Z,56.81
2022-09-06T06:56:33.291Z,56.94
2022-09-06T06:59:05.632Z,57.18
2022-09-06T07:01:35.182Z,56.76
2022-09-06T07:04:03.973Z,56.21
2022-09-06T07:09:21.058Z,55.95
2022-09-06T07:11:49.789Z,56.14
2022-09-06T07:14:18.907Z,55.73
2022-09-06T07:16:46.765Z,55.88
2022-09-06T07:22:05.197Z,55.36
2022-09-06T07:24:33.775Z,55.36
2022-09-06T07:29:49.260Z,54.60
2022-09-06T07:32:17.176Z,54.84
2022-09-06T07:34:45.146Z,54.68
2022-09-06T07:37:13.010Z,54.11
2022-09-06T07:39:41.618Z,54.08
2022-09-06T07:42:09.811Z,53.67
2022-09-06T07:44:37.599Z,54.26
2022-09-06T07:55:32.915Z,53.20
2022-09-06T07:58:00.664Z,53.29
2022-09-06T08:00:28.504Z,53.07
2022-09-06T08:02:56.299Z,53.21
2022-09-06T08:10:59.705Z,52.34
2022-09-06T08:13:27.799Z,52.23
2022-09-06T08:16:10.463Z,52.02
2022-09-06T08:18:38.767Z,51.63
2022-09-06T08:21:15.133Z,51.68
2022-09-06T08:23:49.469Z,51.73
2022-09-06T08:26:19.066Z,51.19
2022-09-06T08:28:47.266Z,50.99
2022-09-06T08:31:17.356Z,50.95
2022-09-06T08:33:45.664Z,50.63
2022-09-06T08:36:15.133Z,50.60
2022-09-06T08:38:43.252Z,50.28
2022-09-06T08:41:17.178Z,50.10
2022-09-06T08:47:15.751Z,48.43
2022-09-06T08:49:48.730Z,48.46
2022-09-06T08:53:13.219Z,48.47
2022-09-06T08:55:45.695Z,48.10
2022-09-06T08:58:47.887Z,47.84
2022-09-06T09:01:29.527Z,46.89
2022-09-06T09:03:59.118Z,46.24
2022-09-06T09:06:28.283Z,45.97
2022-09-06T09:09:08.318Z,46.37
2022-09-06T09:11:39.211Z,46.50
2022-09-06T09:14:36.143Z,46.39
2022-09-06T09:17:26.221Z,46.71
2022-09-06T09:19:55.407Z,45.84
2022-09-06T09:22:25.288Z,46.31
2022-09-06T09:24:54.658Z,46.21
2022-09-06T09:27:27.329Z,45.91
2022-09-06T09:32:45.923Z,45.39
2022-09-06T09:35:37.332Z,46.06
2022-09-06T09:38:26.617Z,45.67
2022-09-06T09:41:02.888Z,45.96
2022-09-06T09:43:32.489Z,45.33
2022-09-06T09:46:24.612Z,44.92
2022-09-06T09:49:29.201Z,44.68
2022-09-06T09:52:14.788Z,44.83
2022-09-06T09:54:47.848Z,44.94
2022-09-06T09:57:19.583Z,44.64
2022-09-06T09:59:57.481Z,44.31
2022-09-06T10:02:36.273Z,44.97
2022-09-06T10:05:20.359Z,45.21
2022-09-06T10:07:55.896Z,44.94
2022-09-06T10:10:31.412Z,45.22
2022-09-06T10:13:31.083Z,45.46
2022-09-06T10:16:03.191Z,45.16
2022-09-06T10:18:39.852Z,45.50
2022-09-06T10:21:24.065Z,45.33
2022-09-06T10:24:43.294Z,45.01
2022-09-06T10:27:11.073Z,45.04
2022-09-06T10:30:09.393Z,44.33
2022-09-06T10:33:08.025Z,44.71
2022-09-06T10:35:38.652Z,44.50
2022-09-06T10:38:38.622Z,44.10
2022-09-06T10:41:53.310Z,44.53
2022-09-06T10:45:06.083Z,44.00
2022-09-06T10:47:56.981Z,44.40
2022-09-06T10:50:48.796Z,44.88
2022-09-06T10:53:22.366Z,44.96
2022-09-06T10:56:21.027Z,44.94
2022-09-06T10:59:38.621Z,44.38
2022-09-06T11:05:49.353Z,44.74
2022-09-06T11:11:23.280Z,44.87
2022-09-06T11:13:51.145Z,45.16
2022-09-06T11:16:29.001Z,45.10
2022-09-06T11:19:17.730Z,45.22
2022-09-06T11:21:54.284Z,44.99
2022-09-06T11:24:43.785Z,44.84
2022-09-06T11:27:26.346Z,44.84
2022-09-06T11:29:58.310Z,44.92
2022-09-06T11:32:37.639Z,45.50
2022-09-06T11:35:16.359Z,45.43
2022-09-06T11:37:49.568Z,45.65
2022-09-06T11:42:53.017Z,45.25
2022-09-06T11:45:40.596Z,45.00
2022-09-06T11:48:35.273Z,44.21
2022-09-06T11:51:11.185Z,44.60
2022-09-06T11:53:51.173Z,43.87
2022-09-06T11:56:47.351Z,43.95
2022-09-06T11:59:21.523Z,43.23
2022-09-06T12:02:27.145Z,42.88
2022-09-06T12:05:09.700Z,42.88
2022-09-06T12:07:58.709Z,42.86
2022-09-06T12:10:50.870Z,41.60
2022-09-06T12:13:42.233Z,41.61
2022-09-06T12:16:15.657Z,41.43
2022-09-06T12:18:44.172Z,41.02
2022-09-06T12:21:37.775Z,41.55
2022-09-06T12:24:29.396Z,41.34
2022-09-06T12:27:17.688Z,41.51
2022-09-06T12:29:55.103Z,41.62
2022-09-06T12:32:37.026Z,41.65
2022-09-06T12:38:06.917Z,41.25
2022-09-06T12:40:43.830Z,41.28
2022-09-06T12:43:15.937Z,41.76
2022-09-06T12:45:50.687Z,41.40
2022-09-06T12:48:35.962Z,42.01
2022-09-06T12:51:13.593Z,40.97
2022-09-06T12:53:49.612Z,41.20
2022-09-06T12:56:21.900Z,40.96
2022-09-06T12:58:50.024Z,40.60
2022-09-06T13:01:31.172Z,40.47
2022-09-06T13:04:09.879Z,40.29
2022-09-06T13:06:45.866Z,39.92
2022-09-06T13:09:18.988Z,39.60
2022-09-06T13:11:52.261Z,39.45
2022-09-06T13:14:32.877Z,39.32
2022-09-06T13:17:01.347Z,39.55
2022-09-06T13:19:39.336Z,39.12
2022-09-06T13:22:11.224Z,39.06
2022-09-06T13:24:47.869Z,39.36
2022-09-06T13:27:36.806Z,39.42
2022-09-06T13:30:09.921Z,38.84
2022-09-06T13:32:46.398Z,39.23
2022-09-06T13:35:31.890Z,38.10
2022-09-06T13:38:21.222Z,37.76
2022-09-06T13:41:10.971Z,37.63
2022-09-06T13:43:47.684Z,38.13
2022-09-06T13:46:16.136Z,38.45
2022-09-06T13:48:44.548Z,38.85
2022-09-06T13:51:12.830Z,39.16
2022-09-06T13:53:40.894Z,39.16
2022-09-06T13:56:09.061Z,39.08
2022-09-06T13:58:37.569Z,38.87
2022-09-06T14:01:10.009Z,39.13
2022-09-06T14:03:42.227Z,39.20
2022-09-06T14:06:10.994Z,38.91
2022-09-06T14:09:03.164Z,38.68
2022-09-06T14:11:27.494Z,37.18
2022-09-06T14:13:55.369Z,37.66
2022-09-06T14:16:23.362Z,37.63
2022-09-06T14:18:52.155Z,36.90
2022-09-06T14:21:20.144Z,36.67
2022-09-06T14:23:52.726Z,37.01
2022-09-06T14:26:23.140Z,36.75
2022-09-06T14:28:51.026Z,37.16
2022-09-06T14:31:22.909Z,38.09
2022-09-06T14:33:50.754Z,37.99
2022-09-06T14:36:22.126Z,38.76
2022-09-06T14:38:50.949Z,39.06
2022-09-06T14:41:19.918Z,38.91
2022-09-06T14:43:54.984Z,39.87
2022-09-06T14:46:24.916Z,39.75
2022-09-06T14:49:07.600Z,40.02
2022-09-06T14:51:37.037Z,39.63
2022-09-06T14:54:09.750Z,40.51
2022-09-06T14:56:40.467Z,40.65
2022-09-06T14:59:09.233Z,40.22
2022-09-06T15:01:39.057Z,40.21
2022-09-06T15:04:10.362Z,40.18
2022-09-06T15:06:40.855Z,40.07
2022-09-06T15:09:11.309Z,39.20
2022-09-06T15:11:47.618Z,39.21
2022-09-06T15:14:27.159Z,38.54
2022-09-06T15:16:58.181Z,37.53
2022-09-06T15:19:28.731Z,37.66
2022-09-06T15:21:58.142Z,37.18
2022-09-06T15:24:26.409Z,37.71
2022-09-06T15:26:54.317Z,37.51
2022-09-06T15:29:22.722Z,37.34
2022-09-06T15:31:50.938Z,37.70
2022-09-06T15:34:25.041Z,37.02
2022-09-06T15:36:53.660Z,34.98
2022-09-06T15:39:21.702Z,33.67
2022-09-06T15:41:51.600Z,34.84
2022-09-06T15:44:21.643Z,34.61
2022-09-06T15:46:58.207Z,35.34
2022-09-06T15:49:33.089Z,35.22
2022-09-06T15:52:02.867Z,36.48
2022-09-06T15:54:49.389Z,37.42
2022-09-06T15:57:17.668Z,38.65
2022-09-06T15:59:46.035Z,38.70
2022-09-06T16:02:14.575Z,38.69
2022-09-06T16:04:42.608Z,38.69
2022-09-06T16:07:10.478Z,39.08
2022-09-06T16:09:38.874Z,39.30
2022-09-06T16:12:07.022Z,38.91
2022-09-06T16:14:35.781Z,38.59
2022-09-06T16:17:04.165Z,38.56
2022-09-06T16:19:32.572Z,38.68
2022-09-06T16:22:01.038Z,39.19
2022-09-06T16:24:28.896Z,40.24
2022-09-06T16:26:56.913Z,40.86
2022-09-06T16:29:24.931Z,40.99
2022-09-06T16:31:59.499Z,41.00
2022-09-06T16:34:27.535Z,40.89
2022-09-06T16:36:57.057Z,41.35
2022-09-06T16:39:24.973Z,41.51
2022-09-06T16:41:52.756Z,41.98
2022-09-06T16:44:20.626Z,42.32
2022-09-06T16:46:50.303Z,42.87
2022-09-06T16:49:19.315Z,42.45
2022-09-06T16:51:49.721Z,42.16
2022-09-06T16:54:18.965Z,41.96
2022-09-06T16:56:46.862Z,41.90
2022-09-06T16:59:18.105Z,41.80
2022-09-06T17:01:46.221Z,42.08
2022-09-06T17:04:15.118Z,42.15
2022-09-06T17:06:44.837Z,42.21
2022-09-06T17:09:16.452Z,42.38
2022-09-06T17:11:44.361Z,42.55
2022-09-06T17:14:12.422Z,43.07
2022-09-06T17:16:58.732Z,43.19
2022-09-06T17:19:26.679Z,44.29
2022-09-06T17:21:54.453Z,44.36
2022-09-06T17:24:22.757Z,44.46
2022-09-06T17:26:50.627Z,44.13
2022-09-06T17:29:18.691Z,44.73
2022-09-06T17:31:47.649Z,44.08
2022-09-06T17:34:15.848Z,44.15
2022-09-06T17:36:43.723Z,44.63
2022-09-06T17:39:15.915Z,44.97
2022-09-06T17:41:53.074Z,44.80
2022-09-06T17:44:27.685Z,44.98
2022-09-06T17:47:12.398Z,45.15
2022-09-06T17:49:41.051Z,44.97
2022-09-06T17:52:09.118Z,44.70
2022-09-06T17:54:37.001Z,45.10
2022-09-06T17:57:05.289Z,45.02
2022-09-06T17:59:35.788Z,45.01
2022-09-06T18:02:05.422Z,45.46
2022-09-06T18:04:33.579Z,45.04
2022-09-06T18:07:01.509Z,44.95
2022-09-06T18:09:29.400Z,45.20
2022-09-06T18:11:58.367Z,44.83
2022-09-06T18:14:28.566Z,44.71
2022-09-06T18:16:56.949Z,45.16
2022-09-06T18:19:26.259Z,45.02
2022-09-06T18:21:55.359Z,45.60
2022-09-06T18:24:23.940Z,45.50
2022-09-06T18:26:51.792Z,45.86
2022-09-06T18:29:20.818Z,46.00
2022-09-06T18:31:48.711Z,46.52
2022-09-06T18:34:17.010Z,46.38
2022-09-06T18:36:44.988Z,46.57
2022-09-06T18:39:13.274Z,46.95
2022-09-06T18:41:59.896Z,47.37
2022-09-06T18:44:33.624Z,47.19
2022-09-06T18:47:05.623Z,47.49
2022-09-06T18:49:34.546Z,48.04
2022-09-06T18:52:04.651Z,48.38
2022-09-06T18:54:33.134Z,48.59
2022-09-06T18:57:00.923Z,48.56
2022-09-06T18:59:28.818Z,48.68
2022-09-06T19:01:57.112Z,48.48
2022-09-06T19:04:25.139Z,48.90
2022-09-06T19:06:52.895Z,48.98
2022-09-06T19:09:21.529Z,49.05
2022-09-06T19:11:51.688Z,49.38
2022-09-06T19:14:19.779Z,49.44
2022-09-06T19:16:48.723Z,49.25
2022-09-06T19:19:16.590Z,49.57
2022-09-06T19:21:44.711Z,49.98
2022-09-06T19:24:14.679Z,49.95
2022-09-06T19:26:44.336Z,50.01
2022-09-06T19:29:15.525Z,50.17
2022-09-06T19:31:44.565Z,49.70
2022-09-06T19:34:14.610Z,49.47
2022-09-06T19:36:43.898Z,49.68
2022-09-06T19:39:15.456Z,49.56
2022-09-06T19:41:45.275Z,49.56
2022-09-06T19:44:16.129Z,49.43
2022-09-06T19:46:46.745Z,49.18
2022-09-06T19:49:17.539Z,48.97
2022-09-06T19:51:48.694Z,48.36
2022-09-06T19:54:17.849Z,48.57
2022-09-06T19:56:47.292Z,48.51
2022-09-06T19:59:16.222Z,48.18
2022-09-06T20:01:46.365Z,48.48
2022-09-06T20:04:14.937Z,48.26
2022-09-06T20:06:43.185Z,48.53
2022-09-06T20:09:12.355Z,48.48
2022-09-06T20:11:42.799Z,48.47
2022-09-06T20:14:11.891Z,48.58
2022-09-06T20:16:42.029Z,48.47
2022-09-06T20:19:12.583Z,48.43
2022-09-06T20:21:40.961Z,48.34
2022-09-06T20:24:09.176Z,48.33
2022-09-06T20:26:37.800Z,48.67
2022-09-06T20:29:06.615Z,48.99
2022-09-06T20:31:36.915Z,49.19
2022-09-06T20:34:06.453Z,49.14
2022-09-06T20:36:34.719Z,49.20
2022-09-06T20:39:03.051Z,49.13
2022-09-06T20:41:31.170Z,48.92
2022-09-06T20:43:59.994Z,49.11
2022-09-06T20:46:32.426Z,48.91
2022-09-06T20:49:04.510Z,48.72
2022-09-06T20:51:34.905Z,48.94
2022-09-06T20:54:05.327Z,48.68
2022-09-06T20:56:38.092Z,48.98
2022-09-06T20:59:09.362Z,48.89
2022-09-06T21:01:43.416Z,48.78
2022-09-06T21:04:13.854Z,48.73
2022-09-06T21:06:42.529Z,48.91
2022-09-06T21:09:13.390Z,48.85
2022-09-06T21:11:42.561Z,48.77
2022-09-06T21:14:11.343Z,48.92
2022-09-06T21:16:40.592Z,48.99
2022-09-06T21:19:10.478Z,48.94
2022-09-06T21:21:40.202Z,48.72
2022-09-06T21:24:09.737Z,48.56
2022-09-06T21:26:38.099Z,48.51
2022-09-06T21:29:05.969Z,48.32
2022-09-06T21:31:36.682Z,48.29
2022-09-06T21:34:16.176Z,48.33
2022-09-06T21:36:44.894Z,47.96
2022-09-06T21:39:13.250Z,47.94
2022-09-06T21:41:43.206Z,47.91
2022-09-06T21:44:12.208Z,47.86
2022-09-06T21:46:41.122Z,47.95
2022-09-06T21:49:13.051Z,47.65
2022-09-06T21:51:41.762Z,47.37
2022-09-06T21:54:10.181Z,47.23
2022-09-06T21:56:39.476Z,47.29
2022-09-06T21:59:08.508Z,47.34
2022-09-06T22:01:37.941Z,47.27
2022-09-06T22:04:07.141Z,47.07
2022-09-06T22:06:36.546Z,47.10
2022-09-06T22:09:13.021Z,46.91
2022-09-06T22:11:43.874Z,46.99
2022-09-06T22:14:15.347Z,47.29
2022-09-06T22:16:43.802Z,47.32
2022-09-06T22:19:12.412Z,47.22
2022-09-06T22:21:40.399Z,47.31
2022-09-06T22:24:11.424Z,47.05
2022-09-06T22:26:40.779Z,47.30
2022-09-06T22:29:11.780Z,47.38
2022-09-06T22:31:40.239Z,47.44
2022-09-06T22:34:09.016Z,47.27
2022-09-06T22:36:36.959Z,47.19
2022-09-06T22:39:05.320Z,47.13
2022-09-06T22:41:34.100Z,46.67
2022-09-06T22:44:03.393Z,46.93
2022-09-06T22:46:32.143Z,46.91
2022-09-06T22:49:00.667Z,46.83
2022-09-06T22:51:28.697Z,46.45
2022-09-06T22:53:56.613Z,46.59
2022-09-06T22:56:24.640Z,46.60
2022-09-06T22:58:52.548Z,46.38
2022-09-06T23:01:20.481Z,46.31
2022-09-06T23:03:49.323Z,46.24
2022-09-06T23:06:17.297Z,46.15
2022-09-06T23:08:45.380Z,46.26
2022-09-06T23:11:16.625Z,46.14
2022-09-06T23:13:46.131Z,46.15
2022-09-06T23:16:18.472Z,45.97
2022-09-06T23:18:47.860Z,46.06
2022-09-06T23:21:19.149Z,46.24
2022-09-06T23:23:48.815Z,46.18
2022-09-06T23:26:20.713Z,45.94
2022-09-06T23:28:56.625Z,46.00
2022-09-06T23:31:27.437Z,46.15
2022-09-06T23:33:57.889Z,45.89
2022-09-06T23:36:26.708Z,45.98
2022-09-06T23:38:55.913Z,46.23
2022-09-06T23:41:24.243Z,45.90
2022-09-06T23:43:52.082Z,46.01
2022-09-06T23:46:20.362Z,46.01
2022-09-06T23:48:48.192Z,46.10
2022-09-06T23:51:16.047Z,45.92
2022-09-06T23:53:43.997Z,46.11
2022-09-06T23:56:12.349Z,45.94
2022-09-06T23:58:40.466Z,46.30
